Carson, NM (87517)

8:15 PM MDT on September 02, 2014 (GMT -0600)
Talpa | Change Station
CLOSE
Current Station
Personal Weather Station
Location: Talpa, NM
Elevation: 7277 ft
Nearby Weather Stations

Elev 7277 ft 36.34 °N, 105.59 °W | Updated 29 seconds ago

Partly Cloudy
Partly Cloudy
74.4 °F
Feels Like 76 °F
N
8.0
Wind Variable Wind from SSE
Gusts 13.0 mph

Today
High -- | Low -- °F
--% Chance of Precip.
Yesterday
High -- | Low -- °F
Precip. -- in
6:35 AM 7:29 PM
First Quarter, 57% visible
Pressure 30.28 in
Visibility 10.0 miles
Clouds Mostly Cloudy 12000 ft
Heat Index 76 °F
Dew Point 33 °F
Humidity 22%
Rainfall 0.00 in
Snow Depth 0 in
UV 0 out of 12
Pollen 10.00 out of 12
Air Quality Not available.
Flu Activity Not available.
METAR KAXX 030155Z AUTO 21007KT 10SM BKN120 18/05 A3028 RMK AO2 T01780049

More Conditions Fewer Conditions

Pressure 30.28 in
Visibility 10.0 miles
Clouds Mostly Cloudy 12000 ft
Heat Index 76 °F
Dew Point 33 °F
Humidity 22%
Rainfall 0.00 in
Snow Depth 0 in
UV 0 out of 12
Pollen 10.00 out of 12
Air Quality Not available.
Flu Activity Not available.
METAR KAXX 030155Z AUTO 21007KT 10SM BKN120 18/05 A3028 RMK AO2 T01780049

More Conditions Fewer Conditions

10-Day Weather Forecast

Almanac

Astronomy

Sep. 02, 2014 Rise Set
Actual Time 6:35 AM MDT 7:29 PM MDT
Civil Twilight 6:09 AM MDT 7:55 PM MDT
Nautical Twilight 5:37 AM MDT 8:26 PM MDT
Astronomical Twilight 5:05 AM MDT 8:58 PM MDT
Moon 2:10 PM MDT (9/2) No Moon Set
Length of Visible Light 13h 46m
Length of Day
12h 54m
Tomorrow will be 2m 13s shorter.
First Quarter, 57% of the Moon is Illuminated
Today
First Quarter
Sep 8
Full
Sep 15
Last Quarter
Sep 24
New
Oct 1
First Quarter

Today's Extremes

State Highs State Lows

Community

WunderPhotos

Upload Photos

1,749,841 photos uploaded!

Nearby

Snow Depth

Station Depth Elevation
Gallegos Peak 0 in 9800 ft
Tolby 0 in 10180 ft
Red River Pass #2 0 in 9850 ft
Santa Fe 0 in 11445 ft
Wesner Springs 1 in 11120 ft

Earthquake Activity

City Distance Mag. Time & Date
Trinidad, Colorado 66 miles 2.7 4:20 AM MDT
2014-08-31
Minimum magnitude displayed is 2.5.

Coastal Water Temperatures

Place Temperature
No Stations Reporting

Nearby Weather Stations